Impacts TAF Board
For situational awareness. Not to be used for flight planning purposes.
IDs:

KVCT - Victoria Rgnl, TX, US

Issued at 1720 UTC 02 Oct 2022
Updated at 1843 UTC 02 Oct 2022
Potential Impact None Slight Moderate High
Time1751Z 02/19Z 02/20Z 02/21Z 02/22Z 02/23Z 03/00Z 03/01Z 03/02Z 03/03Z 03/04Z 03/05Z 03/06Z 03/07Z>>
Type OBS PRVL PRVL PRVL PRVL PRVL PRVL PRVL PRVL PRVL PRVL PRVL PRVL PRVL
VIS 10 >6 >6 >6 >6 >6 >6 >6 >6 >6 >6 >6 >6 >6
CIG -- 250 250 250 250 250 250 250 250 250 250 250 250 250
Cover CLR BKN BKN BKN BKN BKN BKN BKN BKN BKN BKN BKN BKN BKN
FltCat VFR VFR VFR VFR VFR VFR VFR VFR VFR VFR VFR VFR VFR VFR
WX -- -- -- -- -- -- -- -- -- -- -- -- -- --
WDir 10 VRB VRB VRB VRB 130 130 130 130 130 130 130 130 130
WSpd 4 2 2 2 2 5 5 5 5 5 5 5 5 5
WGst -- -- -- -- -- -- -- -- -- -- -- -- -- --
WSHgt -- -- -- -- -- -- -- -- -- -- -- -- -- --
WSDir -- -- -- -- -- -- -- -- -- -- -- -- -- --
WSSpd -- -- -- -- -- -- -- -- -- -- -- -- -- --
R13/31
XWnd 3 VRB VRB VRB VRB 0 0 0 0 0 0 0 0 0
HWnd -2 VRB VRB VRB VRB 5 5 5 5 5 5 5 5 5
R18/36
XWnd 1 VRB VRB VRB VRB 4 4 4 4 4 4 4 4 4
HWnd -4 VRB VRB VRB VRB 3 3 3 3 3 3 3 3 3
Raw TAF
KVCT 021720Z 0218/0318 VRB02KT P6SM SCT170 BKN250
  FM022300 13005KT P6SM SCT170 BKN250
  FM031500 07005KT P6SM SKC


Raw METAR
KVCT 021751Z 01004KT 10SM CLR 29/11 A3013 RMK AO2 SLP202 T02890111 10306 20133 58004
KVCT 021651Z 03008KT 10SM CLR 29/13 A3015 RMK AO2 SLP209 T02890133
KVCT 021551Z 04009KT 10SM CLR 26/15 A3015 RMK AO2 SLP208 T02610150

METAR Board
Radar Display
Forecast Discussion
For situational awareness. Not to be used for flight planning purposes.